sensor_id;sensor_type;location;lat;lon;timestamp;temperature;humidity
75738;DHT22;64356;45.638;13.764;2023-06-22T00:00:50;26.70;68.90
75738;DHT22;64356;45.638;13.764;2023-06-22T00:03:21;26.70;68.90
75738;DHT22;64356;45.638;13.764;2023-06-22T00:05:48;26.70;68.90
75738;DHT22;64356;45.638;13.764;2023-06-22T00:08:14;26.70;68.90
75738;DHT22;64356;45.638;13.764;2023-06-22T00:10:40;26.70;68.90
75738;DHT22;64356;45.638;13.764;2023-06-22T00:13:07;26.70;68.90
75738;DHT22;64356;45.638;13.764;2023-06-22T00:15:34;26.70;68.90
75738;DHT22;64356;45.638;13.764;2023-06-22T00:17:59;26.70;68.80
75738;DHT22;64356;45.638;13.764;2023-06-22T00:20:26;26.70;68.80
75738;DHT22;64356;45.638;13.764;2023-06-22T00:22:56;26.70;68.60
75738;DHT22;64356;45.638;13.764;2023-06-22T00:25:22;26.70;68.50
75738;DHT22;64356;45.638;13.764;2023-06-22T00:27:48;26.60;68.40
75738;DHT22;64356;45.638;13.764;2023-06-22T00:30:18;26.70;68.40
75738;DHT22;64356;45.638;13.764;2023-06-22T00:32:45;26.70;68.30
75738;DHT22;64356;45.638;13.764;2023-06-22T00:35:11;26.70;68.30
75738;DHT22;64356;45.638;13.764;2023-06-22T00:37:38;26.60;68.10
75738;DHT22;64356;45.638;13.764;2023-06-22T00:40:08;26.70;68.10
75738;DHT22;64356;45.638;13.764;2023-06-22T00:42:36;26.70;68.00
75738;DHT22;64356;45.638;13.764;2023-06-22T00:45:02;26.60;67.80
75738;DHT22;64356;45.638;13.764;2023-06-22T00:47:28;26.60;67.70
75738;DHT22;64356;45.638;13.764;2023-06-22T00:49:54;26.70;67.60
75738;DHT22;64356;45.638;13.764;2023-06-22T00:52:22;26.60;67.50
75738;DHT22;64356;45.638;13.764;2023-06-22T00:54:53;26.60;67.40
75738;DHT22;64356;45.638;13.764;2023-06-22T00:57:19;26.60;67.40
75738;DHT22;64356;45.638;13.764;2023-06-22T00:59:47;26.60;67.30
75738;DHT22;64356;45.638;13.764;2023-06-22T01:02:14;26.60;67.30
75738;DHT22;64356;45.638;13.764;2023-06-22T01:04:40;26.60;67.50
75738;DHT22;64356;45.638;13.764;2023-06-22T01:07:30;26.60;67.10
75738;DHT22;64356;45.638;13.764;2023-06-22T01:10:07;26.60;67.10
75738;DHT22;64356;45.638;13.764;2023-06-22T01:12:40;26.60;66.90
75738;DHT22;64356;45.638;13.764;2023-06-22T01:15:13;26.60;66.80
75738;DHT22;64356;45.638;13.764;2023-06-22T01:17:41;26.60;66.70
75738;DHT22;64356;45.638;13.764;2023-06-22T01:20:09;26.60;66.60
75738;DHT22;64356;45.638;13.764;2023-06-22T01:28:51;26.60;66.30
75738;DHT22;64356;45.638;13.764;2023-06-22T01:31:20;26.60;66.30
75738;DHT22;64356;45.638;13.764;2023-06-22T01:33:53;26.60;66.30
75738;DHT22;64356;45.638;13.764;2023-06-22T01:36:21;26.60;66.30
75738;DHT22;64356;45.638;13.764;2023-06-22T01:38:48;26.60;66.30
75738;DHT22;64356;45.638;13.764;2023-06-22T01:41:16;26.60;66.30
75738;DHT22;64356;45.638;13.764;2023-06-22T01:43:43;26.60;66.30
75738;DHT22;64356;45.638;13.764;2023-06-22T01:46:10;26.50;66.30
75738;DHT22;64356;45.638;13.764;2023-06-22T01:48:36;26.60;66.40
75738;DHT22;64356;45.638;13.764;2023-06-22T01:51:03;26.60;66.40
75738;DHT22;64356;45.638;13.764;2023-06-22T01:53:29;26.60;66.40
75738;DHT22;64356;45.638;13.764;2023-06-22T01:55:56;26.50;66.40
75738;DHT22;64356;45.638;13.764;2023-06-22T01:58:25;26.60;66.40
75738;DHT22;64356;45.638;13.764;2023-06-22T02:01:11;26.50;66.40
75738;DHT22;64356;45.638;13.764;2023-06-22T02:03:48;26.50;66.30
75738;DHT22;64356;45.638;13.764;2023-06-22T02:06:18;26.50;66.20
75738;DHT22;64356;45.638;13.764;2023-06-22T02:08:59;26.50;66.10
75738;DHT22;64356;45.638;13.764;2023-06-22T02:11:28;26.50;65.90
75738;DHT22;64356;45.638;13.764;2023-06-22T02:13:56;26.50;65.90
75738;DHT22;64356;45.638;13.764;2023-06-22T02:16:23;26.50;65.80
75738;DHT22;64356;45.638;13.764;2023-06-22T02:18:50;26.50;65.80
75738;DHT22;64356;45.638;13.764;2023-06-22T02:21:21;26.50;65.80
75738;DHT22;64356;45.638;13.764;2023-06-22T02:23:47;26.50;66.40
75738;DHT22;64356;45.638;13.764;2023-06-22T02:26:13;26.50;65.80
75738;DHT22;64356;45.638;13.764;2023-06-22T02:28:39;26.50;66.40
75738;DHT22;64356;45.638;13.764;2023-06-22T02:31:05;26.50;65.80
75738;DHT22;64356;45.638;13.764;2023-06-22T02:33:30;26.60;65.90
75738;DHT22;64356;45.638;13.764;2023-06-22T02:35:56;26.50;65.90
75738;DHT22;64356;45.638;13.764;2023-06-22T02:38:22;26.50;65.90
75738;DHT22;64356;45.638;13.764;2023-06-22T02:40:50;26.50;65.90
75738;DHT22;64356;45.638;13.764;2023-06-22T02:43:16;26.50;65.80
75738;DHT22;64356;45.638;13.764;2023-06-22T02:45:42;26.50;65.80
75738;DHT22;64356;45.638;13.764;2023-06-22T02:48:07;26.50;65.70
75738;DHT22;64356;45.638;13.764;2023-06-22T02:50:33;26.50;65.60
75738;DHT22;64356;45.638;13.764;2023-06-22T02:52:59;26.50;65.60
75738;DHT22;64356;45.638;13.764;2023-06-22T02:55:24;26.50;65.50
75738;DHT22;64356;45.638;13.764;2023-06-22T02:57:50;26.50;65.50
75738;DHT22;64356;45.638;13.764;2023-06-22T03:00:18;26.50;65.50
75738;DHT22;64356;45.638;13.764;2023-06-22T03:02:48;26.50;65.50
75738;DHT22;64356;45.638;13.764;2023-06-22T03:05:14;26.50;65.50
75738;DHT22;64356;45.638;13.764;2023-06-22T03:07:44;26.50;65.50
75738;DHT22;64356;45.638;13.764;2023-06-22T03:10:12;26.50;65.60
75738;DHT22;64356;45.638;13.764;2023-06-22T03:12:38;26.50;65.50
75738;DHT22;64356;45.638;13.764;2023-06-22T03:15:09;26.50;65.50
75738;DHT22;64356;45.638;13.764;2023-06-22T03:17:35;26.50;65.50
75738;DHT22;64356;45.638;13.764;2023-06-22T03:20:02;26.50;65.40
75738;DHT22;64356;45.638;13.764;2023-06-22T03:22:35;26.50;65.90
75738;DHT22;64356;45.638;13.764;2023-06-22T03:25:01;26.50;65.20
75738;DHT22;64356;45.638;13.764;2023-06-22T03:27:27;26.50;65.20
75738;DHT22;64356;45.638;13.764;2023-06-22T03:29:53;26.50;65.10
75738;DHT22;64356;45.638;13.764;2023-06-22T03:32:18;26.50;65.60
75738;DHT22;64356;45.638;13.764;2023-06-22T03:34:44;26.50;65.00
75738;DHT22;64356;45.638;13.764;2023-06-22T03:37:13;26.50;65.00
75738;DHT22;64356;45.638;13.764;2023-06-22T03:39:40;26.50;64.90
75738;DHT22;64356;45.638;13.764;2023-06-22T03:42:06;26.50;64.90
75738;DHT22;64356;45.638;13.764;2023-06-22T03:44:32;26.50;64.80
75738;DHT22;64356;45.638;13.764;2023-06-22T03:46:58;26.50;64.80
75738;DHT22;64356;45.638;13.764;2023-06-22T03:49:24;26.40;64.80
75738;DHT22;64356;45.638;13.764;2023-06-22T03:51:50;26.50;64.80
75738;DHT22;64356;45.638;13.764;2023-06-22T03:54:15;26.50;64.80
75738;DHT22;64356;45.638;13.764;2023-06-22T03:56:41;26.50;64.80
75738;DHT22;64356;45.638;13.764;2023-06-22T03:59:07;26.50;64.80
75738;DHT22;64356;45.638;13.764;2023-06-22T04:01:32;26.40;64.70
75738;DHT22;64356;45.638;13.764;2023-06-22T04:03:58;26.40;64.80
75738;DHT22;64356;45.638;13.764;2023-06-22T04:06:24;26.40;64.80
75738;DHT22;64356;45.638;13.764;2023-06-22T04:08:49;26.50;64.90
75738;DHT22;64356;45.638;13.764;2023-06-22T04:11:17;26.40;64.90
75738;DHT22;64356;45.638;13.764;2023-06-22T04:13:43;26.40;65.00
75738;DHT22;64356;45.638;13.764;2023-06-22T04:16:09;26.50;65.10
75738;DHT22;64356;45.638;13.764;2023-06-22T04:18:35;26.50;65.20
75738;DHT22;64356;45.638;13.764;2023-06-22T04:21:02;26.50;65.20
75738;DHT22;64356;45.638;13.764;2023-06-22T04:23:27;26.50;65.40
75738;DHT22;64356;45.638;13.764;2023-06-22T04:25:53;26.50;65.40
75738;DHT22;64356;45.638;13.764;2023-06-22T04:28:19;26.40;65.50
75738;DHT22;64356;45.638;13.764;2023-06-22T04:30:44;26.50;65.80
75738;DHT22;64356;45.638;13.764;2023-06-22T04:33:14;26.50;65.90
75738;DHT22;64356;45.638;13.764;2023-06-22T04:35:40;26.50;66.10
75738;DHT22;64356;45.638;13.764;2023-06-22T04:38:07;26.50;66.20
75738;DHT22;64356;45.638;13.764;2023-06-22T04:40:33;26.50;66.40
75738;DHT22;64356;45.638;13.764;2023-06-22T04:42:59;26.40;66.30
75738;DHT22;64356;45.638;13.764;2023-06-22T04:45:28;26.50;66.40
75738;DHT22;64356;45.638;13.764;2023-06-22T04:47:55;26.50;66.30
75738;DHT22;64356;45.638;13.764;2023-06-22T04:50:20;26.50;66.30
75738;DHT22;64356;45.638;13.764;2023-06-22T04:52:50;26.50;66.30
75738;DHT22;64356;45.638;13.764;2023-06-22T04:55:16;26.50;66.40
75738;DHT22;64356;45.638;13.764;2023-06-22T04:57:44;26.50;66.40
75738;DHT22;64356;45.638;13.764;2023-06-22T05:00:15;26.40;66.30
75738;DHT22;64356;45.638;13.764;2023-06-22T05:02:43;26.50;66.50
75738;DHT22;64356;45.638;13.764;2023-06-22T05:05:10;26.40;66.40
75738;DHT22;64356;45.638;13.764;2023-06-22T05:07:41;26.50;66.50
75738;DHT22;64356;45.638;13.764;2023-06-22T05:10:09;26.40;66.50
75738;DHT22;64356;45.638;13.764;2023-06-22T05:12:36;26.50;66.60
75738;DHT22;64356;45.638;13.764;2023-06-22T05:15:01;26.40;66.60
75738;DHT22;64356;45.638;13.764;2023-06-22T05:17:27;26.40;66.70
75738;DHT22;64356;45.638;13.764;2023-06-22T05:19:53;26.50;66.80
75738;DHT22;64356;45.638;13.764;2023-06-22T05:22:20;26.40;66.80
75738;DHT22;64356;45.638;13.764;2023-06-22T05:24:46;26.50;66.80
75738;DHT22;64356;45.638;13.764;2023-06-22T05:27:13;26.50;66.80
75738;DHT22;64356;45.638;13.764;2023-06-22T05:29:39;26.50;66.70
75738;DHT22;64356;45.638;13.764;2023-06-22T05:32:05;26.50;66.60
75738;DHT22;64356;45.638;13.764;2023-06-22T05:34:31;26.50;66.60
75738;DHT22;64356;45.638;13.764;2023-06-22T05:36:57;26.50;66.40
75738;DHT22;64356;45.638;13.764;2023-06-22T05:39:24;26.50;66.30
75738;DHT22;64356;45.638;13.764;2023-06-22T05:41:51;26.50;66.20
75738;DHT22;64356;45.638;13.764;2023-06-22T05:44:17;26.60;66.10
75738;DHT22;64356;45.638;13.764;2023-06-22T05:46:44;26.60;66.00
75738;DHT22;64356;45.638;13.764;2023-06-22T05:49:11;26.60;66.00
75738;DHT22;64356;45.638;13.764;2023-06-22T05:51:37;26.70;66.20
75738;DHT22;64356;45.638;13.764;2023-06-22T05:54:02;26.60;65.80
75738;DHT22;64356;45.638;13.764;2023-06-22T05:56:28;26.60;65.70
75738;DHT22;64356;45.638;13.764;2023-06-22T05:58:54;26.60;65.90
75738;DHT22;64356;45.638;13.764;2023-06-22T06:01:19;26.60;66.00
75738;DHT22;64356;45.638;13.764;2023-06-22T06:03:45;26.70;65.80
75738;DHT22;64356;45.638;13.764;2023-06-22T06:06:11;26.70;65.20
75738;DHT22;64356;45.638;13.764;2023-06-22T06:08:38;26.70;64.50
75738;DHT22;64356;45.638;13.764;2023-06-22T06:11:05;26.80;64.70
75738;DHT22;64356;45.638;13.764;2023-06-22T06:13:30;26.80;64.70
75738;DHT22;64356;45.638;13.764;2023-06-22T06:15:57;26.90;64.90
75738;DHT22;64356;45.638;13.764;2023-06-22T06:18:23;26.90;64.20
75738;DHT22;64356;45.638;13.764;2023-06-22T06:20:49;26.90;64.20
75738;DHT22;64356;45.638;13.764;2023-06-22T06:23:14;26.90;64.10
75738;DHT22;64356;45.638;13.764;2023-06-22T06:25:40;26.90;64.40
75738;DHT22;64356;45.638;13.764;2023-06-22T06:28:06;26.80;64.60
75738;DHT22;64356;45.638;13.764;2023-06-22T06:30:32;26.90;64.90
75738;DHT22;64356;45.638;13.764;2023-06-22T06:32:57;26.80;64.90
75738;DHT22;64356;45.638;13.764;2023-06-22T06:35:23;26.80;64.70
75738;DHT22;64356;45.638;13.764;2023-06-22T06:37:50;26.80;64.50
75738;DHT22;64356;45.638;13.764;2023-06-22T06:40:17;26.80;64.50
75738;DHT22;64356;45.638;13.764;2023-06-22T06:42:44;26.90;64.80
75738;DHT22;64356;45.638;13.764;2023-06-22T06:45:12;26.90;64.70
75738;DHT22;64356;45.638;13.764;2023-06-22T06:47:39;26.90;64.70
75738;DHT22;64356;45.638;13.764;2023-06-22T06:50:05;26.90;64.70
75738;DHT22;64356;45.638;13.764;2023-06-22T06:52:31;26.90;64.10
75738;DHT22;64356;45.638;13.764;2023-06-22T06:54:58;26.90;64.20
75738;DHT22;64356;45.638;13.764;2023-06-22T06:57:24;27.00;63.90
75738;DHT22;64356;45.638;13.764;2023-06-22T06:59:57;27.00;63.20
75738;DHT22;64356;45.638;13.764;2023-06-22T07:02:23;27.00;63.00
75738;DHT22;64356;45.638;13.764;2023-06-22T07:04:49;27.10;62.10
75738;DHT22;64356;45.638;13.764;2023-06-22T07:07:16;27.10;62.50
75738;DHT22;64356;45.638;13.764;2023-06-22T07:09:41;27.10;63.10
75738;DHT22;64356;45.638;13.764;2023-06-22T07:12:07;27.10;63.20
75738;DHT22;64356;45.638;13.764;2023-06-22T07:14:33;27.10;63.10
75738;DHT22;64356;45.638;13.764;2023-06-22T07:16:59;27.10;62.80
75738;DHT22;64356;45.638;13.764;2023-06-22T07:19:25;27.20;62.80
75738;DHT22;64356;45.638;13.764;2023-06-22T07:21:52;27.20;62.40
75738;DHT22;64356;45.638;13.764;2023-06-22T07:24:22;27.20;62.70
75738;DHT22;64356;45.638;13.764;2023-06-22T07:26:48;27.20;62.50
75738;DHT22;64356;45.638;13.764;2023-06-22T07:29:16;27.20;62.40
75738;DHT22;64356;45.638;13.764;2023-06-22T07:31:42;27.20;62.40
75738;DHT22;64356;45.638;13.764;2023-06-22T07:34:08;27.20;62.40
75738;DHT22;64356;45.638;13.764;2023-06-22T07:36:34;27.20;62.40
75738;DHT22;64356;45.638;13.764;2023-06-22T07:39:04;27.20;62.30
75738;DHT22;64356;45.638;13.764;2023-06-22T07:41:30;27.20;62.20
75738;DHT22;64356;45.638;13.764;2023-06-22T07:43:56;27.20;62.10
75738;DHT22;64356;45.638;13.764;2023-06-22T07:46:22;27.20;62.00
75738;DHT22;64356;45.638;13.764;2023-06-22T07:48:48;27.20;61.90
75738;DHT22;64356;45.638;13.764;2023-06-22T07:51:14;27.20;61.90
75738;DHT22;64356;45.638;13.764;2023-06-22T07:53:41;27.30;61.90
75738;DHT22;64356;45.638;13.764;2023-06-22T07:56:09;27.30;61.70
75738;DHT22;64356;45.638;13.764;2023-06-22T07:58:35;27.30;61.60
75738;DHT22;64356;45.638;13.764;2023-06-22T08:01:02;27.40;61.70
75738;DHT22;64356;45.638;13.764;2023-06-22T08:03:28;27.40;61.70
75738;DHT22;64356;45.638;13.764;2023-06-22T08:05:54;27.40;61.70
75738;DHT22;64356;45.638;13.764;2023-06-22T08:08:20;27.40;61.50
75738;DHT22;64356;45.638;13.764;2023-06-22T08:10:45;27.40;61.40
75738;DHT22;64356;45.638;13.764;2023-06-22T08:13:11;27.40;61.50
75738;DHT22;64356;45.638;13.764;2023-06-22T08:15:37;27.40;61.70
75738;DHT22;64356;45.638;13.764;2023-06-22T08:18:03;27.40;62.30
75738;DHT22;64356;45.638;13.764;2023-06-22T08:20:28;27.40;61.70
75738;DHT22;64356;45.638;13.764;2023-06-22T08:22:55;27.40;61.90
75738;DHT22;64356;45.638;13.764;2023-06-22T08:25:21;27.40;61.80
75738;DHT22;64356;45.638;13.764;2023-06-22T08:27:47;27.40;62.10
75738;DHT22;64356;45.638;13.764;2023-06-22T08:30:14;27.40;62.10
75738;DHT22;64356;45.638;13.764;2023-06-22T08:32:40;27.50;62.30
75738;DHT22;64356;45.638;13.764;2023-06-22T08:35:06;27.60;62.30
75738;DHT22;64356;45.638;13.764;2023-06-22T08:37:34;27.70;62.00
75738;DHT22;64356;45.638;13.764;2023-06-22T08:40:02;27.70;61.80
75738;DHT22;64356;45.638;13.764;2023-06-22T08:42:30;27.80;61.70
75738;DHT22;64356;45.638;13.764;2023-06-22T08:44:57;27.90;61.60
75738;DHT22;64356;45.638;13.764;2023-06-22T08:47:23;27.90;60.70
75738;DHT22;64356;45.638;13.764;2023-06-22T08:49:49;27.90;60.40
75738;DHT22;64356;45.638;13.764;2023-06-22T08:52:15;28.00;60.30
75738;DHT22;64356;45.638;13.764;2023-06-22T08:54:40;28.00;60.00
75738;DHT22;64356;45.638;13.764;2023-06-22T08:57:06;28.10;59.70
75738;DHT22;64356;45.638;13.764;2023-06-22T08:59:32;28.10;59.50
75738;DHT22;64356;45.638;13.764;2023-06-22T09:01:58;28.20;59.60
75738;DHT22;64356;45.638;13.764;2023-06-22T09:04:24;28.20;59.70
75738;DHT22;64356;45.638;13.764;2023-06-22T09:06:56;28.20;60.00
75738;DHT22;64356;45.638;13.764;2023-06-22T09:09:22;28.10;60.10
75738;DHT22;64356;45.638;13.764;2023-06-22T09:11:48;28.10;60.40
75738;DHT22;64356;45.638;13.764;2023-06-22T09:14:13;28.00;60.30
75738;DHT22;64356;45.638;13.764;2023-06-22T09:16:39;28.10;60.50
75738;DHT22;64356;45.638;13.764;2023-06-22T09:19:05;28.00;60.70
75738;DHT22;64356;45.638;13.764;2023-06-22T09:21:30;28.00;60.80
75738;DHT22;64356;45.638;13.764;2023-06-22T09:23:56;28.00;61.30
75738;DHT22;64356;45.638;13.764;2023-06-22T09:26:22;28.00;61.30
75738;DHT22;64356;45.638;13.764;2023-06-22T09:28:49;28.00;61.60
75738;DHT22;64356;45.638;13.764;2023-06-22T09:31:15;28.00;61.90
75738;DHT22;64356;45.638;13.764;2023-06-22T09:33:42;28.00;62.50
75738;DHT22;64356;45.638;13.764;2023-06-22T09:36:08;28.10;62.20
75738;DHT22;64356;45.638;13.764;2023-06-22T09:38:37;28.10;62.40
75738;DHT22;64356;45.638;13.764;2023-06-22T09:41:04;28.20;62.30
75738;DHT22;64356;45.638;13.764;2023-06-22T09:43:32;28.30;62.20
75738;DHT22;64356;45.638;13.764;2023-06-22T09:46:00;28.30;62.00
75738;DHT22;64356;45.638;13.764;2023-06-22T09:48:27;28.40;61.50
75738;DHT22;64356;45.638;13.764;2023-06-22T09:50:54;28.50;60.40
75738;DHT22;64356;45.638;13.764;2023-06-22T09:53:19;28.50;60.10
75738;DHT22;64356;45.638;13.764;2023-06-22T09:55:45;28.60;59.80
75738;DHT22;64356;45.638;13.764;2023-06-22T09:58:11;28.70;59.60
75738;DHT22;64356;45.638;13.764;2023-06-22T10:00:37;28.70;59.40
75738;DHT22;64356;45.638;13.764;2023-06-22T10:03:02;28.70;59.40
75738;DHT22;64356;45.638;13.764;2023-06-22T10:05:28;28.70;59.60
75738;DHT22;64356;45.638;13.764;2023-06-22T10:07:54;28.70;59.80
75738;DHT22;64356;45.638;13.764;2023-06-22T10:10:19;28.70;59.70
75738;DHT22;64356;45.638;13.764;2023-06-22T10:12:47;28.70;59.30
75738;DHT22;64356;45.638;13.764;2023-06-22T10:15:14;28.80;59.00
75738;DHT22;64356;45.638;13.764;2023-06-22T10:17:39;28.80;58.80
75738;DHT22;64356;45.638;13.764;2023-06-22T10:20:06;28.90;58.90
75738;DHT22;64356;45.638;13.764;2023-06-22T10:22:40;28.90;58.80
75738;DHT22;64356;45.638;13.764;2023-06-22T10:25:06;28.90;58.80
75738;DHT22;64356;45.638;13.764;2023-06-22T10:27:32;29.00;58.70
75738;DHT22;64356;45.638;13.764;2023-06-22T10:29:58;29.00;58.50
75738;DHT22;64356;45.638;13.764;2023-06-22T10:32:23;29.00;57.80
75738;DHT22;64356;45.638;13.764;2023-06-22T10:34:49;29.10;57.30
75738;DHT22;64356;45.638;13.764;2023-06-22T10:37:15;29.10;57.10
75738;DHT22;64356;45.638;13.764;2023-06-22T10:39:40;29.10;57.10
75738;DHT22;64356;45.638;13.764;2023-06-22T10:42:07;29.10;57.40
75738;DHT22;64356;45.638;13.764;2023-06-22T10:44:32;29.10;57.40
75738;DHT22;64356;45.638;13.764;2023-06-22T10:46:58;29.10;56.90
75738;DHT22;64356;45.638;13.764;2023-06-22T10:49:24;29.10;57.00
75738;DHT22;64356;45.638;13.764;2023-06-22T10:51:49;29.10;56.30
75738;DHT22;64356;45.638;13.764;2023-06-22T10:54:15;29.20;55.50
75738;DHT22;64356;45.638;13.764;2023-06-22T10:56:43;29.20;55.30
75738;DHT22;64356;45.638;13.764;2023-06-22T10:59:09;29.30;55.10
75738;DHT22;64356;45.638;13.764;2023-06-22T11:01:35;29.40;54.80
75738;DHT22;64356;45.638;13.764;2023-06-22T11:04:01;29.40;54.80
75738;DHT22;64356;45.638;13.764;2023-06-22T11:06:27;29.50;54.90
75738;DHT22;64356;45.638;13.764;2023-06-22T11:08:52;29.50;55.20
75738;DHT22;64356;45.638;13.764;2023-06-22T11:11:18;29.50;55.50
75738;DHT22;64356;45.638;13.764;2023-06-22T11:13:44;29.60;55.30
75738;DHT22;64356;45.638;13.764;2023-06-22T11:16:10;29.60;54.60
75738;DHT22;64356;45.638;13.764;2023-06-22T11:18:36;29.60;54.40
75738;DHT22;64356;45.638;13.764;2023-06-22T11:21:01;29.70;54.50
75738;DHT22;64356;45.638;13.764;2023-06-22T11:23:27;29.70;54.70
75738;DHT22;64356;45.638;13.764;2023-06-22T11:25:54;29.70;54.90
75738;DHT22;64356;45.638;13.764;2023-06-22T11:28:20;29.70;55.10
75738;DHT22;64356;45.638;13.764;2023-06-22T11:30:46;29.70;55.20
75738;DHT22;64356;45.638;13.764;2023-06-22T11:33:12;29.70;55.20
75738;DHT22;64356;45.638;13.764;2023-06-22T11:35:37;29.70;55.30
75738;DHT22;64356;45.638;13.764;2023-06-22T11:38:03;29.60;55.40
75738;DHT22;64356;45.638;13.764;2023-06-22T11:40:30;29.60;55.50
75738;DHT22;64356;45.638;13.764;2023-06-22T11:42:56;29.70;55.40
75738;DHT22;64356;45.638;13.764;2023-06-22T11:45:22;29.70;55.40
75738;DHT22;64356;45.638;13.764;2023-06-22T11:47:47;29.70;55.30
75738;DHT22;64356;45.638;13.764;2023-06-22T11:50:13;29.80;55.00
75738;DHT22;64356;45.638;13.764;2023-06-22T11:52:39;29.70;55.10
75738;DHT22;64356;45.638;13.764;2023-06-22T11:55:05;29.70;55.30
75738;DHT22;64356;45.638;13.764;2023-06-22T11:57:36;29.70;55.90
75738;DHT22;64356;45.638;13.764;2023-06-22T12:00:03;29.70;55.60
75738;DHT22;64356;45.638;13.764;2023-06-22T12:02:41;29.70;55.70
75738;DHT22;64356;45.638;13.764;2023-06-22T12:05:07;29.60;55.70
75738;DHT22;64356;45.638;13.764;2023-06-22T12:07:33;29.50;55.90
75738;DHT22;64356;45.638;13.764;2023-06-22T12:09:59;29.30;56.20
75738;DHT22;64356;45.638;13.764;2023-06-22T12:12:25;29.20;56.50
75738;DHT22;64356;45.638;13.764;2023-06-22T12:14:50;29.20;56.80
75738;DHT22;64356;45.638;13.764;2023-06-22T12:17:16;29.20;57.10
75738;DHT22;64356;45.638;13.764;2023-06-22T12:19:41;29.20;57.50
75738;DHT22;64356;45.638;13.764;2023-06-22T12:22:07;29.10;57.60
75738;DHT22;64356;45.638;13.764;2023-06-22T12:24:33;29.20;57.60
75738;DHT22;64356;45.638;13.764;2023-06-22T12:26:58;29.20;57.70
75738;DHT22;64356;45.638;13.764;2023-06-22T12:29:24;29.20;57.80
75738;DHT22;64356;45.638;13.764;2023-06-22T12:31:50;29.20;58.30
75738;DHT22;64356;45.638;13.764;2023-06-22T12:34:16;29.20;57.70
75738;DHT22;64356;45.638;13.764;2023-06-22T12:36:41;29.20;57.60
75738;DHT22;64356;45.638;13.764;2023-06-22T12:39:07;29.20;57.40
75738;DHT22;64356;45.638;13.764;2023-06-22T12:41:33;29.20;57.60
75738;DHT22;64356;45.638;13.764;2023-06-22T12:43:58;29.10;57.60
75738;DHT22;64356;45.638;13.764;2023-06-22T12:46:24;29.10;57.70
75738;DHT22;64356;45.638;13.764;2023-06-22T12:48:50;29.20;57.90
75738;DHT22;64356;45.638;13.764;2023-06-22T12:51:22;29.20;57.80
75738;DHT22;64356;45.638;13.764;2023-06-22T12:53:48;29.10;57.80
75738;DHT22;64356;45.638;13.764;2023-06-22T12:56:14;29.10;58.00
75738;DHT22;64356;45.638;13.764;2023-06-22T12:58:40;29.20;58.30
75738;DHT22;64356;45.638;13.764;2023-06-22T13:01:05;29.30;58.20
75738;DHT22;64356;45.638;13.764;2023-06-22T13:03:31;29.40;58.10
75738;DHT22;64356;45.638;13.764;2023-06-22T13:05:56;29.40;58.20
75738;DHT22;64356;45.638;13.764;2023-06-22T13:08:22;29.60;58.30
75738;DHT22;64356;45.638;13.764;2023-06-22T13:10:48;29.70;58.20
75738;DHT22;64356;45.638;13.764;2023-06-22T13:13:13;29.80;58.50
75738;DHT22;64356;45.638;13.764;2023-06-22T13:15:39;29.80;58.40
75738;DHT22;64356;45.638;13.764;2023-06-22T13:18:05;29.90;58.60
75738;DHT22;64356;45.638;13.764;2023-06-22T13:20:31;30.00;58.80
75738;DHT22;64356;45.638;13.764;2023-06-22T13:22:57;30.00;59.10
75738;DHT22;64356;45.638;13.764;2023-06-22T13:25:23;30.10;59.00
75738;DHT22;64356;45.638;13.764;2023-06-22T13:27:52;30.10;59.20
75738;DHT22;64356;45.638;13.764;2023-06-22T13:30:17;30.10;59.20
75738;DHT22;64356;45.638;13.764;2023-06-22T13:32:43;30.10;59.10
75738;DHT22;64356;45.638;13.764;2023-06-22T13:35:12;30.10;58.90
75738;DHT22;64356;45.638;13.764;2023-06-22T13:37:38;30.10;58.60
75738;DHT22;64356;45.638;13.764;2023-06-22T13:40:05;30.10;58.70
75738;DHT22;64356;45.638;13.764;2023-06-22T13:42:32;30.10;58.50
75738;DHT22;64356;45.638;13.764;2023-06-22T13:44:58;30.10;57.90
75738;DHT22;64356;45.638;13.764;2023-06-22T13:47:24;30.00;58.20
75738;DHT22;64356;45.638;13.764;2023-06-22T13:49:49;30.10;58.40
75738;DHT22;64356;45.638;13.764;2023-06-22T13:52:15;30.10;58.20
75738;DHT22;64356;45.638;13.764;2023-06-22T13:54:41;30.10;57.90
75738;DHT22;64356;45.638;13.764;2023-06-22T13:57:07;30.10;58.40
75738;DHT22;64356;45.638;13.764;2023-06-22T13:59:33;30.20;58.10
75738;DHT22;64356;45.638;13.764;2023-06-22T14:01:58;30.20;57.70
75738;DHT22;64356;45.638;13.764;2023-06-22T14:04:24;30.20;57.10
75738;DHT22;64356;45.638;13.764;2023-06-22T14:06:50;30.20;56.90
75738;DHT22;64356;45.638;13.764;2023-06-22T14:09:15;30.20;57.30
75738;DHT22;64356;45.638;13.764;2023-06-22T14:11:41;30.10;57.50
75738;DHT22;64356;45.638;13.764;2023-06-22T14:14:07;30.00;57.50
75738;DHT22;64356;45.638;13.764;2023-06-22T14:16:32;30.00;56.50
75738;DHT22;64356;45.638;13.764;2023-06-22T14:18:58;30.10;55.90
75738;DHT22;64356;45.638;13.764;2023-06-22T14:21:25;30.10;55.30
75738;DHT22;64356;45.638;13.764;2023-06-22T14:23:51;30.10;55.30
75738;DHT22;64356;45.638;13.764;2023-06-22T14:26:17;30.20;55.50
75738;DHT22;64356;45.638;13.764;2023-06-22T14:28:47;30.20;56.10
75738;DHT22;64356;45.638;13.764;2023-06-22T14:31:17;30.20;56.40
75738;DHT22;64356;45.638;13.764;2023-06-22T14:33:46;30.20;56.60
75738;DHT22;64356;45.638;13.764;2023-06-22T14:36:13;30.10;56.60
75738;DHT22;64356;45.638;13.764;2023-06-22T14:38:39;30.10;56.80
75738;DHT22;64356;45.638;13.764;2023-06-22T14:41:05;30.10;56.90
75738;DHT22;64356;45.638;13.764;2023-06-22T14:43:30;30.00;56.80
75738;DHT22;64356;45.638;13.764;2023-06-22T14:45:56;29.90;56.90
75738;DHT22;64356;45.638;13.764;2023-06-22T14:48:22;29.70;57.20
75738;DHT22;64356;45.638;13.764;2023-06-22T14:50:47;29.60;57.10
75738;DHT22;64356;45.638;13.764;2023-06-22T14:53:13;29.50;57.00
75738;DHT22;64356;45.638;13.764;2023-06-22T14:55:40;29.40;57.20
75738;DHT22;64356;45.638;13.764;2023-06-22T14:58:06;29.40;56.70
75738;DHT22;64356;45.638;13.764;2023-06-22T15:00:32;29.40;56.40
75738;DHT22;64356;45.638;13.764;2023-06-22T15:02:57;29.30;56.10
75738;DHT22;64356;45.638;13.764;2023-06-22T15:05:24;29.30;56.10
75738;DHT22;64356;45.638;13.764;2023-06-22T15:07:50;29.20;55.70
75738;DHT22;64356;45.638;13.764;2023-06-22T15:10:15;29.20;55.00
75738;DHT22;64356;45.638;13.764;2023-06-22T15:12:41;29.20;54.90
75738;DHT22;64356;45.638;13.764;2023-06-22T15:15:07;29.20;55.00
75738;DHT22;64356;45.638;13.764;2023-06-22T15:17:32;29.10;55.20